createdAt,value
2019-05-29T00:02:20.493Z,99560.63
2019-05-29T00:04:48.328Z,99567.59
2019-05-29T00:07:16.830Z,99567.11
2019-05-29T00:09:44.673Z,99567.11
2019-05-29T00:12:18.427Z,99573.44
2019-05-29T00:14:42.138Z,99568.77
2019-05-29T00:17:10.423Z,99581.34
2019-05-29T00:19:38.297Z,99581.34
2019-05-29T00:22:06.242Z,99584.79
2019-05-29T00:24:34.040Z,99585.80
2019-05-29T00:27:01.827Z,99593.53
2019-05-29T00:29:29.657Z,99593.53
2019-05-29T00:31:57.353Z,99593.05
2019-05-29T00:34:28.599Z,99587.73
2019-05-29T00:36:56.410Z,99595.26
2019-05-29T00:39:24.214Z,99601.09
2019-05-29T00:41:51.935Z,99598.73
2019-05-29T00:44:33.547Z,99604.56
2019-05-29T00:46:49.266Z,99604.56
2019-05-29T00:49:18.061Z,99605.19
2019-05-29T00:51:45.982Z,99610.47
2019-05-29T00:54:14.470Z,99612.73
2019-05-29T00:56:42.344Z,99629.78
2019-05-29T00:59:11.076Z,99629.78
2019-05-29T01:01:38.920Z,99623.43
2019-05-29T01:04:07.582Z,99624.60
2019-05-29T01:06:35.284Z,99624.60
2019-05-29T01:09:03.995Z,99629.27
2019-05-29T01:11:32.501Z,99632.73
2019-05-29T01:14:00.284Z,99632.38
2019-05-29T01:16:27.987Z,99630.44
2019-05-29T01:18:57.901Z,99641.91
2019-05-29T01:21:25.839Z,99645.02
2019-05-29T01:23:54.656Z,99641.39
2019-05-29T01:26:22.833Z,99638.92
2019-05-29T01:28:50.677Z,99646.55
2019-05-29T01:31:19.377Z,99658.02
2019-05-29T01:33:47.202Z,99656.52
2019-05-29T01:36:27.084Z,99656.52
2019-05-29T01:38:54.825Z,99660.32
2019-05-29T01:41:23.546Z,99669.62
2019-05-29T01:43:51.366Z,99669.62
2019-05-29T01:46:19.508Z,99674.04
2019-05-29T01:48:47.337Z,99674.04
2019-05-29T01:51:15.423Z,99679.66
2019-05-29T01:53:43.590Z,99686.02
2019-05-29T01:56:11.368Z,99686.02
2019-05-29T01:58:39.361Z,99692.34
2019-05-29T02:01:07.199Z,99689.63
2019-05-29T02:03:34.903Z,99689.63
2019-05-29T02:06:02.631Z,99691.64
2019-05-29T02:08:30.341Z,99701.97
2019-05-29T02:10:58.101Z,99701.97
2019-05-29T02:13:26.000Z,99713.55
2019-05-29T02:15:53.744Z,99710.59
2019-05-29T02:18:21.445Z,99716.58
2019-05-29T02:20:49.351Z,99717.93
2019-05-29T02:23:17.779Z,99730.40
2019-05-29T02:25:46.642Z,99743.69
2019-05-29T02:28:14.835Z,99741.07
2019-05-29T02:30:42.622Z,99748.84
2019-05-29T02:33:10.429Z,99748.84
2019-05-29T02:35:38.280Z,99755.16
2019-05-29T02:38:06.214Z,99766.98
2019-05-29T02:40:33.994Z,99767.01
2019-05-29T02:43:01.722Z,99767.01
2019-05-29T02:45:52.083Z,99776.80
2019-05-29T02:47:59.345Z,99780.13
2019-05-29T02:50:28.817Z,99787.42
2019-05-29T02:52:56.768Z,99787.42
2019-05-29T02:55:24.631Z,99787.08
2019-05-29T02:57:52.550Z,99789.95
2019-05-29T03:00:25.733Z,99789.95
2019-05-29T03:02:54.039Z,99807.54
2019-05-29T03:05:22.028Z,99800.09
2019-05-29T03:07:49.997Z,99800.09
2019-05-29T03:10:18.605Z,99811.37
2019-05-29T03:12:46.453Z,99817.81
2019-05-29T03:15:14.315Z,99825.64
2019-05-29T03:17:42.052Z,99825.64
2019-05-29T03:20:09.804Z,99831.75
2019-05-29T03:22:37.572Z,99833.25
2019-05-29T03:25:06.380Z,99844.36
2019-05-29T03:27:34.123Z,99844.36
2019-05-29T03:30:01.929Z,99845.53
2019-05-29T03:32:32.426Z,99858.61
2019-05-29T03:34:59.291Z,99858.61
2019-05-29T03:37:28.219Z,99866.09
2019-05-29T03:39:56.058Z,99864.10
2019-05-29T03:42:24.325Z,99871.73
2019-05-29T03:44:52.016Z,99874.05
2019-05-29T03:47:19.799Z,99883.17
2019-05-29T03:49:47.513Z,99883.17
2019-05-29T03:52:15.239Z,99877.06
2019-05-29T03:54:42.925Z,99877.06
2019-05-29T03:57:10.662Z,99899.97
2019-05-29T03:59:38.466Z,99899.97
2019-05-29T04:02:06.196Z,99894.47
2019-05-29T04:04:35.701Z,99907.27
2019-05-29T04:07:23.624Z,99907.27
2019-05-29T04:09:51.393Z,99913.57
2019-05-29T04:12:19.496Z,99932.15
2019-05-29T04:14:48.000Z,99932.15
2019-05-29T04:17:18.638Z,99933.95
2019-05-29T04:19:47.045Z,99942.69
2019-05-29T04:22:18.401Z,99942.69
2019-05-29T04:24:47.396Z,99948.48
2019-05-29T04:27:18.817Z,99942.81
2019-05-29T04:29:47.537Z,99959.55
2019-05-29T04:32:16.133Z,99965.65
2019-05-29T04:34:43.905Z,99965.65
2019-05-29T04:37:11.607Z,99974.44
2019-05-29T04:39:39.358Z,99970.44
2019-05-29T04:42:07.161Z,99986.91
2019-05-29T04:44:36.246Z,99986.91
2019-05-29T04:47:11.099Z,99997.36
2019-05-29T04:49:36.158Z,99999.76
2019-05-29T04:52:04.286Z,99999.76
2019-05-29T04:54:33.368Z,100010.55
2019-05-29T04:57:01.147Z,100014.72
2019-05-29T04:59:28.907Z,100020.03
2019-05-29T05:01:56.591Z,100023.98
2019-05-29T05:04:24.332Z,100025.80
2019-05-29T05:06:52.199Z,100028.27
2019-05-29T05:09:19.939Z,100038.59
2019-05-29T05:11:47.882Z,100038.59
2019-05-29T05:14:15.811Z,100042.20
2019-05-29T05:16:44.681Z,100047.17
2019-05-29T05:19:12.505Z,100046.53
2019-05-29T05:21:40.360Z,100055.17
2019-05-29T05:24:08.160Z,100057.61
2019-05-29T05:26:36.306Z,100065.33
2019-05-29T05:29:04.393Z,100065.33
2019-05-29T05:31:32.401Z,100072.02
2019-05-29T05:34:00.356Z,100082.82
2019-05-29T05:36:28.086Z,100090.94
2019-05-29T05:38:55.817Z,100090.94
2019-05-29T05:41:23.652Z,100088.77
2019-05-29T05:43:51.380Z,100095.59
2019-05-29T05:46:19.075Z,100102.73
2019-05-29T05:48:49.143Z,100095.67
2019-05-29T05:51:16.944Z,100103.94
2019-05-29T05:53:44.666Z,100109.55
2019-05-29T05:56:12.454Z,100106.22
2019-05-29T05:58:40.310Z,100102.61
2019-05-29T06:01:08.053Z,100103.12
2019-05-29T06:03:36.263Z,100103.12
2019-05-29T06:06:05.291Z,100108.25
2019-05-29T06:08:34.047Z,100112.63
2019-05-29T06:11:02.081Z,100112.63
2019-05-29T06:13:29.987Z,100114.63
2019-05-29T06:15:57.857Z,100115.61
2019-05-29T06:18:26.067Z,100117.75
2019-05-29T06:20:53.816Z,100120.92
2019-05-29T06:23:21.631Z,100121.43
2019-05-29T06:25:50.486Z,100121.94
2019-05-29T06:28:18.245Z,100127.02
2019-05-29T06:30:46.018Z,100125.47
2019-05-29T06:33:13.716Z,100125.47
2019-05-29T06:35:41.745Z,100131.78
2019-05-29T06:38:10.838Z,100140.62
2019-05-29T06:40:40.327Z,100143.44
2019-05-29T06:43:19.629Z,100156.13
2019-05-29T06:45:47.571Z,100156.13
2019-05-29T06:48:40.517Z,100166.25
2019-05-29T06:50:57.130Z,100177.13
2019-05-29T06:53:22.995Z,100177.13
2019-05-29T06:55:54.232Z,100176.93
2019-05-29T06:58:20.737Z,100176.93
2019-05-29T07:00:48.562Z,100186.75
2019-05-29T07:03:16.469Z,100190.09
2019-05-29T07:05:50.613Z,100187.78
2019-05-29T07:08:20.912Z,100191.28
2019-05-29T07:10:44.604Z,100196.59
2019-05-29T07:13:12.401Z,100196.11
2019-05-29T07:15:40.775Z,100207.23
2019-05-29T07:18:08.564Z,100217.39
2019-05-29T07:20:36.561Z,100210.56
2019-05-29T07:23:04.601Z,100218.40
2019-05-29T07:25:32.457Z,100218.40
2019-05-29T07:28:00.276Z,100224.23
2019-05-29T07:30:30.163Z,100229.20
2019-05-29T07:32:59.246Z,100225.70
2019-05-29T07:35:27.046Z,100225.70
2019-05-29T07:37:54.896Z,100221.88
2019-05-29T07:40:22.730Z,100232.86
2019-05-29T07:42:56.093Z,100232.86
2019-05-29T07:45:20.383Z,100225.51
2019-05-29T07:47:48.568Z,100225.51
2019-05-29T07:52:25.187Z,100228.07
2019-05-29T07:54:53.586Z,100237.56
2019-05-29T07:57:21.449Z,100245.73
2019-05-29T07:59:49.149Z,100245.73
2019-05-29T08:02:17.020Z,100255.67
2019-05-29T08:04:45.159Z,100258.49
2019-05-29T08:07:13.203Z,100263.02
2019-05-29T08:09:41.372Z,100251.38
2019-05-29T08:12:09.259Z,100272.74
2019-05-29T08:14:37.578Z,100264.77
2019-05-29T08:17:05.615Z,100266.00
2019-05-29T08:19:33.398Z,100266.00
2019-05-29T08:22:01.253Z,100270.59
2019-05-29T08:24:35.594Z,100285.01
2019-05-29T08:27:03.507Z,100276.31
2019-05-29T08:29:31.197Z,100274.62
2019-05-29T08:31:59.001Z,100277.41
2019-05-29T08:34:26.667Z,100277.41
2019-05-29T08:37:04.841Z,100288.40
2019-05-29T08:39:35.448Z,100289.46
2019-05-29T08:42:21.010Z,100291.23
2019-05-29T08:44:25.657Z,100290.45
2019-05-29T08:47:08.526Z,100292.90
2019-05-29T08:49:23.008Z,100290.98
2019-05-29T08:51:52.295Z,100305.19
2019-05-29T08:54:24.050Z,100297.41
2019-05-29T08:56:50.398Z,100313.00
2019-05-29T08:59:18.197Z,100305.47
2019-05-29T09:01:47.677Z,100313.55
2019-05-29T09:04:15.669Z,100321.31
2019-05-29T09:06:44.662Z,100329.84
2019-05-29T09:09:12.516Z,100327.41
2019-05-29T09:11:40.360Z,100329.61
2019-05-29T09:14:08.177Z,100331.73
2019-05-29T09:16:35.936Z,100330.43
2019-05-29T09:19:04.098Z,100332.91
2019-05-29T09:21:31.876Z,100331.39
2019-05-29T09:23:59.642Z,100334.79
2019-05-29T09:26:27.651Z,100343.03
2019-05-29T09:28:55.396Z,100343.67
2019-05-29T09:31:23.937Z,100345.13
2019-05-29T09:33:51.856Z,100341.66
2019-05-29T09:36:20.681Z,100353.27
2019-05-29T09:38:48.864Z,100355.02
2019-05-29T09:41:17.389Z,100358.33
2019-05-29T09:43:58.388Z,100364.62
2019-05-29T09:46:15.161Z,100362.59
2019-05-29T09:48:49.743Z,100372.43
2019-05-29T09:51:21.226Z,100365.73
2019-05-29T09:53:43.834Z,100371.73
2019-05-29T09:56:11.687Z,100374.62
2019-05-29T09:58:39.433Z,100374.64
2019-05-29T10:01:22.359Z,100375.47
2019-05-29T10:03:38.136Z,100374.39
2019-05-29T10:06:09.204Z,100377.77
2019-05-29T10:08:35.729Z,100382.60
2019-05-29T10:11:08.431Z,100388.73
2019-05-29T10:13:33.349Z,100386.20
2019-05-29T10:16:02.746Z,100392.66
2019-05-29T10:18:32.659Z,100392.02
2019-05-29T10:21:01.265Z,100402.25
2019-05-29T10:23:29.296Z,100396.73
2019-05-29T10:25:58.840Z,100398.45
2019-05-29T10:28:27.326Z,100395.12
2019-05-29T10:30:55.002Z,100400.25
2019-05-29T10:33:22.790Z,100403.81
2019-05-29T10:35:53.300Z,100404.38
2019-05-29T10:38:20.321Z,100401.77
2019-05-29T10:41:02.377Z,100413.05
2019-05-29T10:43:33.168Z,100403.92
2019-05-29T10:45:49.756Z,100404.89
2019-05-29T10:48:17.720Z,100415.09
2019-05-29T10:50:49.188Z,100420.07
2019-05-29T10:53:15.472Z,100418.13
2019-05-29T10:55:44.431Z,100417.81
2019-05-29T10:58:12.425Z,100422.42
2019-05-29T11:00:40.132Z,100412.61
2019-05-29T11:03:08.440Z,100416.63
2019-05-29T11:05:37.309Z,100422.19
2019-05-29T11:08:05.156Z,100423.41
2019-05-29T11:10:32.878Z,100415.09
2019-05-29T11:13:00.625Z,100424.52
2019-05-29T11:15:28.620Z,100427.85
2019-05-29T11:17:57.413Z,100424.20
2019-05-29T11:20:25.983Z,100430.28
2019-05-29T11:22:53.814Z,100428.20
2019-05-29T11:25:27.198Z,100425.86
2019-05-29T11:27:53.041Z,100432.95
2019-05-29T11:30:21.179Z,100434.16
2019-05-29T11:32:51.039Z,100435.97
2019-05-29T11:35:19.436Z,100436.60
2019-05-29T11:37:50.449Z,100433.28
2019-05-29T11:40:19.341Z,100434.42
2019-05-29T11:42:47.243Z,100438.38
2019-05-29T11:45:15.444Z,100443.22
2019-05-29T11:47:43.311Z,100432.24
2019-05-29T11:50:19.031Z,100441.37
2019-05-29T11:52:43.285Z,100430.77
2019-05-29T11:55:11.761Z,100441.63
2019-05-29T11:57:40.055Z,100438.75
2019-05-29T12:00:19.062Z,100448.52
2019-05-29T12:02:38.924Z,100453.77
2019-05-29T12:05:08.278Z,100451.64
2019-05-29T12:07:36.029Z,100452.31
2019-05-29T12:10:07.267Z,100450.05
2019-05-29T12:12:35.500Z,100454.70
2019-05-29T12:15:11.083Z,100453.52
2019-05-29T12:17:33.966Z,100452.16
2019-05-29T12:20:04.021Z,100454.92
2019-05-29T12:22:31.594Z,100454.25
2019-05-29T12:25:00.658Z,100448.34
2019-05-29T12:27:28.761Z,100452.58
2019-05-29T12:29:56.708Z,100463.76
2019-05-29T12:32:25.198Z,100467.02
2019-05-29T12:34:55.298Z,100464.92
2019-05-29T12:37:22.499Z,100463.10
2019-05-29T12:39:50.241Z,100471.30
2019-05-29T12:42:18.033Z,100474.64
2019-05-29T12:44:45.871Z,100470.30
2019-05-29T12:47:13.543Z,100470.11
2019-05-29T12:49:41.270Z,100476.67
2019-05-29T12:52:10.320Z,100479.44
2019-05-29T12:54:38.314Z,100468.09
2019-05-29T12:57:06.084Z,100482.16
2019-05-29T12:59:33.946Z,100474.63
2019-05-29T13:02:02.670Z,100466.75
2019-05-29T13:04:30.667Z,100464.14
2019-05-29T13:06:58.683Z,100482.34
2019-05-29T13:09:27.112Z,100473.73
2019-05-29T13:12:05.691Z,100472.05
2019-05-29T13:14:33.933Z,100476.67
2019-05-29T13:17:02.926Z,100474.73
2019-05-29T13:19:30.881Z,100466.49
2019-05-29T13:21:59.335Z,100475.34
2019-05-29T13:24:27.093Z,100475.13
2019-05-29T13:26:55.469Z,100471.64
2019-05-29T13:29:23.368Z,100473.70
2019-05-29T13:31:55.386Z,100472.91
2019-05-29T13:34:20.722Z,100468.86
2019-05-29T13:36:48.515Z,100478.63
2019-05-29T13:39:16.336Z,100467.11
2019-05-29T13:41:44.087Z,100462.58
2019-05-29T13:44:11.830Z,100461.06
2019-05-29T13:46:39.517Z,100464.54
2019-05-29T13:49:07.369Z,100471.61
2019-05-29T13:51:35.131Z,100472.67
2019-05-29T13:54:11.111Z,100475.71
2019-05-29T13:56:32.773Z,100482.52
2019-05-29T13:59:01.936Z,100482.11
2019-05-29T14:01:30.221Z,100479.02
2019-05-29T14:03:58.219Z,100468.30
2019-05-29T14:06:25.998Z,100471.91
2019-05-29T14:08:54.080Z,100468.97
2019-05-29T14:11:22.091Z,100466.91
2019-05-29T14:13:49.783Z,100476.91
2019-05-29T14:16:17.613Z,100488.03
2019-05-29T14:18:45.524Z,100491.02
2019-05-29T14:21:13.683Z,100486.27
2019-05-29T14:23:41.532Z,100486.45
2019-05-29T14:26:09.851Z,100484.53
2019-05-29T14:28:37.570Z,100472.62
2019-05-29T14:31:05.994Z,100478.23
2019-05-29T14:33:33.870Z,100475.28
2019-05-29T14:36:01.613Z,100486.69
2019-05-29T14:38:29.341Z,100486.96
2019-05-29T14:40:57.081Z,100498.15
2019-05-29T14:43:24.769Z,100501.06
2019-05-29T14:45:52.509Z,100495.55
2019-05-29T14:48:20.236Z,100495.86
2019-05-29T14:50:48.802Z,100493.58
2019-05-29T14:53:16.556Z,100498.80
2019-05-29T14:55:44.452Z,100488.83
2019-05-29T14:58:12.265Z,100489.06
2019-05-29T15:00:40.124Z,100493.50
2019-05-29T15:03:09.273Z,100494.13
2019-05-29T15:05:37.214Z,100496.19
2019-05-29T15:08:05.808Z,100493.64
2019-05-29T15:10:33.865Z,100496.13
2019-05-29T15:13:01.563Z,100496.57
2019-05-29T15:15:30.349Z,100505.05
2019-05-29T15:17:58.026Z,100504.09
2019-05-29T15:20:26.060Z,100505.11
2019-05-29T15:22:53.783Z,100501.55
2019-05-29T15:25:24.362Z,100510.00
2019-05-29T15:27:51.699Z,100510.95
2019-05-29T15:30:22.997Z,100507.64
2019-05-29T15:32:49.813Z,100510.95
2019-05-29T15:35:19.977Z,100517.84
2019-05-29T15:37:48.308Z,100518.06
2019-05-29T15:40:17.149Z,100520.00
2019-05-29T15:42:45.448Z,100518.23
2019-05-29T15:45:14.042Z,100518.01
2019-05-29T15:47:42.050Z,100517.73
2019-05-29T15:50:11.562Z,100516.39
2019-05-29T15:52:39.829Z,100514.80
2019-05-29T15:55:21.314Z,100512.38
2019-05-29T15:57:37.981Z,100519.01
2019-05-29T16:00:07.073Z,100525.02
2019-05-29T16:02:34.895Z,100523.27
2019-05-29T16:05:03.233Z,100527.88
2019-05-29T16:07:30.959Z,100535.77
2019-05-29T16:09:58.888Z,100531.14
2019-05-29T16:12:30.684Z,100538.52
2019-05-29T16:14:56.295Z,100538.76
2019-05-29T16:17:24.117Z,100541.45
2019-05-29T16:19:51.851Z,100544.28
2019-05-29T16:22:20.133Z,100547.83
2019-05-29T16:24:47.807Z,100546.03
2019-05-29T16:27:16.104Z,100548.66
2019-05-29T16:29:43.882Z,100552.00
2019-05-29T16:32:11.670Z,100555.69
2019-05-29T16:34:39.446Z,100554.23
2019-05-29T16:37:07.200Z,100555.20
2019-05-29T16:39:35.177Z,100562.89
2019-05-29T16:42:03.258Z,100560.66
2019-05-29T16:44:30.940Z,100559.50
2019-05-29T16:46:59.218Z,100560.19
2019-05-29T16:49:29.389Z,100558.89
2019-05-29T16:51:57.306Z,100561.20
2019-05-29T16:54:25.161Z,100561.40
2019-05-29T16:56:52.978Z,100561.20
2019-05-29T16:59:21.418Z,100557.75
2019-05-29T17:01:50.349Z,100561.92
2019-05-29T17:04:19.635Z,100565.98
2019-05-29T17:06:47.487Z,100572.03
2019-05-29T17:09:16.322Z,100575.08
2019-05-29T17:11:44.178Z,100571.80
2019-05-29T17:14:11.904Z,100585.35
2019-05-29T17:16:39.634Z,100591.02
2019-05-29T17:19:08.161Z,100599.63
2019-05-29T17:21:35.910Z,100600.21
2019-05-29T17:24:03.843Z,100599.01
2019-05-29T17:26:31.631Z,100616.14
2019-05-29T17:28:59.452Z,100611.92
2019-05-29T17:31:27.639Z,100620.13
2019-05-29T17:33:55.703Z,100618.25
2019-05-29T17:36:28.185Z,100622.44
2019-05-29T17:38:53.734Z,100625.27
2019-05-29T17:41:21.532Z,100627.91
2019-05-29T17:43:49.999Z,100633.80
2019-05-29T17:46:19.508Z,100636.70
2019-05-29T17:48:47.478Z,100639.28
2019-05-29T17:51:17.600Z,100638.82
2019-05-29T17:53:47.029Z,100643.59
2019-05-29T17:56:26.370Z,100642.14
2019-05-29T17:58:44.806Z,100644.87
2019-05-29T18:01:12.711Z,100646.80
2019-05-29T18:03:40.570Z,100643.30
2019-05-29T18:06:08.355Z,100654.56
2019-05-29T18:08:36.504Z,100659.52
2019-05-29T18:11:04.431Z,100661.88
2019-05-29T18:13:32.431Z,100664.55
2019-05-29T18:16:00.345Z,100665.92
2019-05-29T18:18:28.092Z,100669.58
2019-05-29T18:20:58.254Z,100672.28
2019-05-29T18:23:26.561Z,100669.45
2019-05-29T18:25:54.260Z,100668.00
2019-05-29T18:28:22.130Z,100673.14
2019-05-29T18:30:50.023Z,100683.08
2019-05-29T18:33:18.639Z,100678.87
2019-05-29T18:35:46.461Z,100687.39
2019-05-29T18:38:14.506Z,100682.39
2019-05-29T18:40:42.433Z,100686.05
2019-05-29T18:43:10.311Z,100680.53
2019-05-29T18:45:38.126Z,100683.08
2019-05-29T18:48:06.095Z,100689.41
2019-05-29T18:50:33.912Z,100687.42
2019-05-29T18:53:01.761Z,100692.44
2019-05-29T18:55:29.697Z,100695.47
2019-05-29T18:57:57.600Z,100698.36
2019-05-29T19:00:25.461Z,100703.38
2019-05-29T19:02:53.324Z,100709.08
2019-05-29T19:05:21.546Z,100707.75
2019-05-29T19:07:49.339Z,100710.05
2019-05-29T19:10:17.313Z,100712.23
2019-05-29T19:12:45.101Z,100720.39
2019-05-29T19:15:13.331Z,100712.37
2019-05-29T19:17:41.128Z,100719.78
2019-05-29T19:20:09.297Z,100719.85
2019-05-29T19:22:37.022Z,100724.06
2019-05-29T19:25:07.590Z,100731.96
2019-05-29T19:27:41.351Z,100726.31
2019-05-29T19:30:05.974Z,100723.83
2019-05-29T19:32:35.784Z,100734.39
2019-05-29T19:35:04.495Z,100739.25
2019-05-29T19:37:32.234Z,100740.61
2019-05-29T19:39:59.958Z,100740.58
2019-05-29T19:42:28.143Z,100745.79
2019-05-29T19:44:56.174Z,100747.62
2019-05-29T19:47:24.630Z,100742.11
2019-05-29T19:49:52.641Z,100745.97
2019-05-29T19:52:20.557Z,100753.99
2019-05-29T19:54:48.374Z,100752.33
2019-05-29T19:57:16.945Z,100754.67
2019-05-29T19:59:44.701Z,100753.16
2019-05-29T20:02:12.597Z,100753.16
2019-05-29T20:04:40.463Z,100757.48
2019-05-29T20:07:08.281Z,100761.81
2019-05-29T20:09:37.476Z,100769.34
2019-05-29T20:12:05.564Z,100763.48
2019-05-29T20:14:33.791Z,100778.48
2019-05-29T20:17:01.738Z,100775.65
2019-05-29T20:19:34.176Z,100784.31
2019-05-29T20:21:59.442Z,100781.12
2019-05-29T20:24:28.645Z,100782.55
2019-05-29T20:26:56.703Z,100782.21
2019-05-29T20:29:24.620Z,100791.20
2019-05-29T20:31:52.474Z,100791.19
2019-05-29T20:34:20.144Z,100790.02
2019-05-29T20:36:48.580Z,100791.98
2019-05-29T20:39:16.262Z,100797.13
2019-05-29T20:41:43.966Z,100802.45
2019-05-29T20:44:11.746Z,100802.43
2019-05-29T20:46:39.600Z,100808.73
2019-05-29T20:49:07.391Z,100803.06
2019-05-29T20:51:36.171Z,100809.84
2019-05-29T20:54:04.352Z,100812.50
2019-05-29T20:56:32.143Z,100815.14
2019-05-29T20:59:09.077Z,100818.42
2019-05-29T21:01:43.030Z,100815.05
2019-05-29T21:04:06.732Z,100813.33
2019-05-29T21:06:34.641Z,100812.54
2019-05-29T21:09:02.484Z,100812.54
2019-05-29T21:11:30.240Z,100817.16
2019-05-29T21:13:58.318Z,100823.12
2019-05-29T21:16:26.087Z,100821.73
2019-05-29T21:18:53.782Z,100822.35
2019-05-29T21:21:21.578Z,100824.64
2019-05-29T21:23:49.680Z,100833.42
2019-05-29T21:26:18.386Z,100831.55
2019-05-29T21:28:50.437Z,100828.00
2019-05-29T21:31:15.901Z,100828.81
2019-05-29T21:33:47.346Z,100837.08
2019-05-29T21:36:14.632Z,100836.25
2019-05-29T21:38:42.376Z,100836.25
2019-05-29T21:41:10.221Z,100849.05
2019-05-29T21:43:38.627Z,100852.82
2019-05-29T21:46:06.491Z,100852.82
2019-05-29T21:48:34.614Z,100853.94
2019-05-29T21:51:02.395Z,100855.91
2019-05-29T21:53:30.208Z,100855.23
2019-05-29T21:55:58.468Z,100858.88
2019-05-29T21:58:26.273Z,100870.67
2019-05-29T22:00:54.871Z,100866.61
2019-05-29T22:03:22.763Z,100872.99
2019-05-29T22:05:50.568Z,100872.99
2019-05-29T22:08:18.513Z,100865.45
2019-05-29T22:10:46.204Z,100873.77
2019-05-29T22:13:14.079Z,100873.77
2019-05-29T22:15:42.015Z,100875.91
2019-05-29T22:18:09.823Z,100885.17
2019-05-29T22:20:37.734Z,100883.28
2019-05-29T22:23:05.647Z,100879.59
2019-05-29T22:25:34.546Z,100873.64
2019-05-29T22:28:03.104Z,100887.12
2019-05-29T22:30:31.020Z,100883.03
2019-05-29T22:32:59.589Z,100883.03
2019-05-29T22:35:27.638Z,100888.64
2019-05-29T22:37:55.762Z,100890.42
2019-05-29T22:40:23.583Z,100898.40
2019-05-29T22:42:51.437Z,100900.95
2019-05-29T22:45:19.456Z,100893.27
2019-05-29T22:47:47.217Z,100893.27
2019-05-29T22:50:15.029Z,100891.16
2019-05-29T22:52:42.801Z,100890.81
2019-05-29T22:55:10.905Z,100892.08
2019-05-29T22:57:38.847Z,100892.08
2019-05-29T23:00:07.658Z,100894.12
2019-05-29T23:02:35.499Z,100898.52
2019-05-29T23:05:03.990Z,100893.31
2019-05-29T23:07:31.782Z,100893.31
2019-05-29T23:10:00.629Z,100897.64
2019-05-29T23:12:28.560Z,100901.22
2019-05-29T23:14:56.395Z,100903.66
2019-05-29T23:17:24.107Z,100906.41
2019-05-29T23:19:52.444Z,100905.83
2019-05-29T23:22:24.217Z,100912.91
2019-05-29T23:24:50.265Z,100902.52
2019-05-29T23:27:18.868Z,100902.52
2019-05-29T23:29:49.231Z,100915.28
2019-05-29T23:32:16.239Z,100912.72
2019-05-29T23:34:55.556Z,100914.67
2019-05-29T23:37:23.377Z,100917.62
2019-05-29T23:39:53.003Z,100915.24
2019-05-29T23:42:21.081Z,100919.28
2019-05-29T23:44:51.977Z,100927.05
2019-05-29T23:47:18.536Z,100921.05
2019-05-29T23:49:46.303Z,100921.25
2019-05-29T23:52:14.328Z,100927.31
2019-05-29T23:54:42.615Z,100916.42
2019-05-29T23:57:10.409Z,100927.67
2019-05-29T23:59:38.591Z,100927.67
